sensor_id;sensor_type;location;lat;lon;timestamp;P1;durP1;ratioP1;P2;durP2;ratioP2
68803;SDS011;55787;52.678;13.314;2023-01-19T00:01:24;31.02;;;9.63;;
68803;SDS011;55787;52.678;13.314;2023-01-19T00:03:52;29.38;;;9.82;;
68803;SDS011;55787;52.678;13.314;2023-01-19T00:06:19;27.70;;;8.90;;
68803;SDS011;55787;52.678;13.314;2023-01-19T00:08:45;27.70;;;9.27;;
68803;SDS011;55787;52.678;13.314;2023-01-19T00:11:14;29.02;;;10.68;;
68803;SDS011;55787;52.678;13.314;2023-01-19T00:13:42;30.92;;;9.38;;
68803;SDS011;55787;52.678;13.314;2023-01-19T00:16:16;24.95;;;9.30;;
68803;SDS011;55787;52.678;13.314;2023-01-19T00:18:44;28.03;;;8.93;;
68803;SDS011;55787;52.678;13.314;2023-01-19T00:21:11;28.63;;;9.00;;
68803;SDS011;55787;52.678;13.314;2023-01-19T00:23:43;26.13;;;9.18;;
68803;SDS011;55787;52.678;13.314;2023-01-19T00:26:15;27.55;;;8.93;;
68803;SDS011;55787;52.678;13.314;2023-01-19T00:28:42;24.52;;;8.50;;
68803;SDS011;55787;52.678;13.314;2023-01-19T00:31:10;27.27;;;8.47;;
68803;SDS011;55787;52.678;13.314;2023-01-19T00:33:37;25.40;;;8.35;;
68803;SDS011;55787;52.678;13.314;2023-01-19T00:36:04;26.38;;;9.52;;
68803;SDS011;55787;52.678;13.314;2023-01-19T00:38:30;26.30;;;8.93;;
68803;SDS011;55787;52.678;13.314;2023-01-19T00:40:57;24.40;;;8.32;;
68803;SDS011;55787;52.678;13.314;2023-01-19T00:43:24;25.97;;;8.43;;
68803;SDS011;55787;52.678;13.314;2023-01-19T00:45:50;25.52;;;7.82;;
68803;SDS011;55787;52.678;13.314;2023-01-19T00:48:18;26.17;;;8.40;;
68803;SDS011;55787;52.678;13.314;2023-01-19T00:50:46;24.00;;;7.55;;
68803;SDS011;55787;52.678;13.314;2023-01-19T00:53:16;22.85;;;7.68;;
68803;SDS011;55787;52.678;13.314;2023-01-19T00:55:43;22.27;;;7.73;;
68803;SDS011;55787;52.678;13.314;2023-01-19T00:58:09;25.88;;;8.65;;
68803;SDS011;55787;52.678;13.314;2023-01-19T01:00:36;21.90;;;7.43;;
68803;SDS011;55787;52.678;13.314;2023-01-19T01:03:03;24.90;;;7.90;;
68803;SDS011;55787;52.678;13.314;2023-01-19T01:05:30;25.15;;;8.27;;
68803;SDS011;55787;52.678;13.314;2023-01-19T01:07:59;26.07;;;8.70;;
68803;SDS011;55787;52.678;13.314;2023-01-19T01:10:27;24.10;;;8.20;;
68803;SDS011;55787;52.678;13.314;2023-01-19T01:12:54;23.95;;;8.15;;
68803;SDS011;55787;52.678;13.314;2023-01-19T01:15:23;26.13;;;8.77;;
68803;SDS011;55787;52.678;13.314;2023-01-19T01:17:51;25.90;;;8.32;;
68803;SDS011;55787;52.678;13.314;2023-01-19T01:20:20;24.13;;;7.93;;
68803;SDS011;55787;52.678;13.314;2023-01-19T01:22:50;21.65;;;7.22;;
68803;SDS011;55787;52.678;13.314;2023-01-19T01:25:18;23.83;;;7.63;;
68803;SDS011;55787;52.678;13.314;2023-01-19T01:27:48;24.20;;;7.72;;
68803;SDS011;55787;52.678;13.314;2023-01-19T01:30:14;24.08;;;8.30;;
68803;SDS011;55787;52.678;13.314;2023-01-19T01:32:42;26.07;;;8.43;;
68803;SDS011;55787;52.678;13.314;2023-01-19T01:35:09;24.52;;;7.82;;
68803;SDS011;55787;52.678;13.314;2023-01-19T01:37:37;24.80;;;8.55;;
68803;SDS011;55787;52.678;13.314;2023-01-19T01:40:04;25.25;;;8.30;;
68803;SDS011;55787;52.678;13.314;2023-01-19T01:42:32;25.77;;;7.78;;
68803;SDS011;55787;52.678;13.314;2023-01-19T01:45:00;25.30;;;7.73;;
68803;SDS011;55787;52.678;13.314;2023-01-19T01:47:41;22.50;;;7.28;;
68803;SDS011;55787;52.678;13.314;2023-01-19T01:50:16;21.85;;;7.60;;
68803;SDS011;55787;52.678;13.314;2023-01-19T01:55:40;20.48;;;7.05;;
68803;SDS011;55787;52.678;13.314;2023-01-19T01:58:10;21.03;;;7.43;;
68803;SDS011;55787;52.678;13.314;2023-01-19T02:00:38;21.13;;;7.75;;
68803;SDS011;55787;52.678;13.314;2023-01-19T02:03:24;24.55;;;8.13;;
68803;SDS011;55787;52.678;13.314;2023-01-19T02:05:56;25.80;;;7.80;;
68803;SDS011;55787;52.678;13.314;2023-01-19T02:08:48;25.40;;;7.82;;
68803;SDS011;55787;52.678;13.314;2023-01-19T02:11:38;22.43;;;7.13;;
68803;SDS011;55787;52.678;13.314;2023-01-19T02:14:25;23.85;;;7.35;;
68803;SDS011;55787;52.678;13.314;2023-01-19T02:16:52;23.60;;;7.63;;
68803;SDS011;55787;52.678;13.314;2023-01-19T02:19:30;22.27;;;7.57;;
68803;SDS011;55787;52.678;13.314;2023-01-19T02:24:43;23.03;;;7.07;;
68803;SDS011;55787;52.678;13.314;2023-01-19T02:27:10;21.35;;;7.53;;
68803;SDS011;55787;52.678;13.314;2023-01-19T02:29:37;24.40;;;7.50;;
68803;SDS011;55787;52.678;13.314;2023-01-19T02:32:05;23.48;;;7.72;;
68803;SDS011;55787;52.678;13.314;2023-01-19T02:34:32;21.75;;;7.07;;
68803;SDS011;55787;52.678;13.314;2023-01-19T02:37:02;22.10;;;8.00;;
68803;SDS011;55787;52.678;13.314;2023-01-19T02:39:35;22.58;;;6.88;;
68803;SDS011;55787;52.678;13.314;2023-01-19T02:42:08;23.40;;;7.53;;
68803;SDS011;55787;52.678;13.314;2023-01-19T02:44:38;22.60;;;7.43;;
68803;SDS011;55787;52.678;13.314;2023-01-19T02:47:09;21.45;;;7.30;;
68803;SDS011;55787;52.678;13.314;2023-01-19T02:49:36;20.13;;;7.13;;
68803;SDS011;55787;52.678;13.314;2023-01-19T02:52:03;22.10;;;6.82;;
68803;SDS011;55787;52.678;13.314;2023-01-19T03:02:58;20.43;;;6.37;;
68803;SDS011;55787;52.678;13.314;2023-01-19T03:08:30;20.85;;;6.70;;
68803;SDS011;55787;52.678;13.314;2023-01-19T03:11:10;20.02;;;6.78;;
68803;SDS011;55787;52.678;13.314;2023-01-19T03:16:28;19.00;;;6.27;;
68803;SDS011;55787;52.678;13.314;2023-01-19T03:18:58;19.75;;;6.63;;
68803;SDS011;55787;52.678;13.314;2023-01-19T03:21:32;23.60;;;7.47;;
68803;SDS011;55787;52.678;13.314;2023-01-19T03:24:01;23.30;;;6.82;;
68803;SDS011;55787;52.678;13.314;2023-01-19T03:26:33;22.27;;;7.45;;
68803;SDS011;55787;52.678;13.314;2023-01-19T03:29:04;24.63;;;7.23;;
68803;SDS011;55787;52.678;13.314;2023-01-19T03:31:33;22.75;;;7.05;;
68803;SDS011;55787;52.678;13.314;2023-01-19T03:34:02;21.85;;;6.95;;
68803;SDS011;55787;52.678;13.314;2023-01-19T03:36:36;26.05;;;6.88;;
68803;SDS011;55787;52.678;13.314;2023-01-19T03:39:08;24.30;;;7.03;;
68803;SDS011;55787;52.678;13.314;2023-01-19T03:41:36;22.83;;;7.13;;
68803;SDS011;55787;52.678;13.314;2023-01-19T03:44:04;18.38;;;6.43;;
68803;SDS011;55787;52.678;13.314;2023-01-19T03:46:32;21.48;;;7.00;;
68803;SDS011;55787;52.678;13.314;2023-01-19T03:48:59;21.92;;;7.38;;
68803;SDS011;55787;52.678;13.314;2023-01-19T03:51:26;20.88;;;7.00;;
68803;SDS011;55787;52.678;13.314;2023-01-19T03:53:53;21.17;;;7.13;;
68803;SDS011;55787;52.678;13.314;2023-01-19T03:56:23;19.13;;;6.10;;
68803;SDS011;55787;52.678;13.314;2023-01-19T03:58:50;21.35;;;6.70;;
68803;SDS011;55787;52.678;13.314;2023-01-19T04:01:18;23.40;;;6.82;;
68803;SDS011;55787;52.678;13.314;2023-01-19T04:03:49;27.73;;;7.50;;
68803;SDS011;55787;52.678;13.314;2023-01-19T04:06:17;22.77;;;7.27;;
68803;SDS011;55787;52.678;13.314;2023-01-19T04:08:46;22.52;;;7.45;;
68803;SDS011;55787;52.678;13.314;2023-01-19T04:11:14;23.10;;;7.05;;
68803;SDS011;55787;52.678;13.314;2023-01-19T04:13:41;26.75;;;8.98;;
68803;SDS011;55787;52.678;13.314;2023-01-19T04:16:08;28.15;;;8.25;;
68803;SDS011;55787;52.678;13.314;2023-01-19T04:18:35;29.00;;;8.27;;
68803;SDS011;55787;52.678;13.314;2023-01-19T04:21:03;26.08;;;8.63;;
68803;SDS011;55787;52.678;13.314;2023-01-19T04:23:31;28.27;;;8.27;;
68803;SDS011;55787;52.678;13.314;2023-01-19T04:26:00;24.35;;;8.25;;
68803;SDS011;55787;52.678;13.314;2023-01-19T04:28:28;27.15;;;8.45;;
68803;SDS011;55787;52.678;13.314;2023-01-19T04:30:55;28.17;;;8.97;;
68803;SDS011;55787;52.678;13.314;2023-01-19T04:33:22;30.70;;;9.63;;
68803;SDS011;55787;52.678;13.314;2023-01-19T04:35:49;25.95;;;9.32;;
68803;SDS011;55787;52.678;13.314;2023-01-19T04:38:20;27.77;;;9.00;;
68803;SDS011;55787;52.678;13.314;2023-01-19T04:40:50;30.17;;;9.15;;
68803;SDS011;55787;52.678;13.314;2023-01-19T04:43:18;27.67;;;8.87;;
68803;SDS011;55787;52.678;13.314;2023-01-19T04:45:45;27.75;;;9.05;;
68803;SDS011;55787;52.678;13.314;2023-01-19T04:48:13;30.23;;;9.93;;
68803;SDS011;55787;52.678;13.314;2023-01-19T04:50:39;31.10;;;10.52;;
68803;SDS011;55787;52.678;13.314;2023-01-19T04:53:09;31.27;;;10.50;;
68803;SDS011;55787;52.678;13.314;2023-01-19T04:55:38;34.87;;;10.50;;
68803;SDS011;55787;52.678;13.314;2023-01-19T04:58:05;29.67;;;10.05;;
68803;SDS011;55787;52.678;13.314;2023-01-19T05:00:33;28.75;;;10.43;;
68803;SDS011;55787;52.678;13.314;2023-01-19T05:03:00;30.92;;;10.35;;
68803;SDS011;55787;52.678;13.314;2023-01-19T05:05:28;33.05;;;11.93;;
68803;SDS011;55787;52.678;13.314;2023-01-19T05:07:55;28.60;;;10.67;;
68803;SDS011;55787;52.678;13.314;2023-01-19T05:10:21;33.53;;;10.52;;
68803;SDS011;55787;52.678;13.314;2023-01-19T05:12:49;28.55;;;10.82;;
68803;SDS011;55787;52.678;13.314;2023-01-19T05:15:16;28.15;;;10.40;;
68803;SDS011;55787;52.678;13.314;2023-01-19T05:17:43;30.05;;;10.45;;
68803;SDS011;55787;52.678;13.314;2023-01-19T05:20:10;32.03;;;10.80;;
68803;SDS011;55787;52.678;13.314;2023-01-19T05:22:42;27.95;;;9.77;;
68803;SDS011;55787;52.678;13.314;2023-01-19T05:25:14;29.70;;;10.43;;
68803;SDS011;55787;52.678;13.314;2023-01-19T05:27:41;30.08;;;9.82;;
68803;SDS011;55787;52.678;13.314;2023-01-19T05:30:08;31.27;;;10.13;;
68803;SDS011;55787;52.678;13.314;2023-01-19T05:32:36;29.73;;;10.37;;
68803;SDS011;55787;52.678;13.314;2023-01-19T05:35:02;28.48;;;11.23;;
68803;SDS011;55787;52.678;13.314;2023-01-19T05:37:30;30.73;;;11.27;;
68803;SDS011;55787;52.678;13.314;2023-01-19T05:39:57;31.65;;;11.52;;
68803;SDS011;55787;52.678;13.314;2023-01-19T05:42:24;29.85;;;9.82;;
68803;SDS011;55787;52.678;13.314;2023-01-19T05:44:51;30.53;;;10.17;;
68803;SDS011;55787;52.678;13.314;2023-01-19T05:47:18;29.20;;;9.45;;
68803;SDS011;55787;52.678;13.314;2023-01-19T05:49:44;29.70;;;10.50;;
68803;SDS011;55787;52.678;13.314;2023-01-19T05:52:11;27.65;;;9.27;;
68803;SDS011;55787;52.678;13.314;2023-01-19T05:54:38;31.48;;;9.98;;
68803;SDS011;55787;52.678;13.314;2023-01-19T05:57:05;27.03;;;9.13;;
68803;SDS011;55787;52.678;13.314;2023-01-19T05:59:32;30.70;;;10.75;;
68803;SDS011;55787;52.678;13.314;2023-01-19T06:02:00;35.20;;;12.50;;
68803;SDS011;55787;52.678;13.314;2023-01-19T06:04:27;28.95;;;10.38;;
68803;SDS011;55787;52.678;13.314;2023-01-19T06:06:53;29.48;;;10.38;;
68803;SDS011;55787;52.678;13.314;2023-01-19T06:09:20;26.50;;;9.40;;
68803;SDS011;55787;52.678;13.314;2023-01-19T06:11:47;31.35;;;10.40;;
68803;SDS011;55787;52.678;13.314;2023-01-19T06:14:13;34.00;;;11.80;;
68803;SDS011;55787;52.678;13.314;2023-01-19T06:16:40;33.95;;;10.57;;
68803;SDS011;55787;52.678;13.314;2023-01-19T06:19:07;29.85;;;10.93;;
68803;SDS011;55787;52.678;13.314;2023-01-19T06:21:33;31.40;;;10.70;;
68803;SDS011;55787;52.678;13.314;2023-01-19T06:24:00;32.05;;;10.52;;
68803;SDS011;55787;52.678;13.314;2023-01-19T06:26:27;31.92;;;10.65;;
68803;SDS011;55787;52.678;13.314;2023-01-19T06:28:54;28.65;;;11.27;;
68803;SDS011;55787;52.678;13.314;2023-01-19T06:31:21;26.52;;;10.35;;
68803;SDS011;55787;52.678;13.314;2023-01-19T06:33:47;31.37;;;11.07;;
68803;SDS011;55787;52.678;13.314;2023-01-19T06:36:15;28.35;;;10.70;;
68803;SDS011;55787;52.678;13.314;2023-01-19T06:38:41;26.90;;;9.95;;
68803;SDS011;55787;52.678;13.314;2023-01-19T06:41:08;30.42;;;10.57;;
68803;SDS011;55787;52.678;13.314;2023-01-19T06:43:34;29.73;;;10.43;;
68803;SDS011;55787;52.678;13.314;2023-01-19T06:46:01;31.97;;;10.50;;
68803;SDS011;55787;52.678;13.314;2023-01-19T06:48:28;32.67;;;9.75;;
68803;SDS011;55787;52.678;13.314;2023-01-19T06:50:55;32.88;;;11.00;;
68803;SDS011;55787;52.678;13.314;2023-01-19T06:53:25;30.17;;;10.70;;
68803;SDS011;55787;52.678;13.314;2023-01-19T06:55:56;33.13;;;11.30;;
68803;SDS011;55787;52.678;13.314;2023-01-19T06:58:27;30.87;;;9.83;;
68803;SDS011;55787;52.678;13.314;2023-01-19T07:00:54;27.95;;;10.40;;
68803;SDS011;55787;52.678;13.314;2023-01-19T07:03:25;26.88;;;9.85;;
68803;SDS011;55787;52.678;13.314;2023-01-19T07:05:52;26.83;;;9.35;;
68803;SDS011;55787;52.678;13.314;2023-01-19T07:08:19;31.58;;;10.45;;
68803;SDS011;55787;52.678;13.314;2023-01-19T07:10:46;33.33;;;11.57;;
68803;SDS011;55787;52.678;13.314;2023-01-19T07:13:33;33.38;;;11.27;;
68803;SDS011;55787;52.678;13.314;2023-01-19T07:16:07;30.95;;;10.95;;
68803;SDS011;55787;52.678;13.314;2023-01-19T07:18:36;29.88;;;10.68;;
68803;SDS011;55787;52.678;13.314;2023-01-19T07:21:03;31.88;;;10.73;;
68803;SDS011;55787;52.678;13.314;2023-01-19T07:23:30;28.13;;;10.57;;
68803;SDS011;55787;52.678;13.314;2023-01-19T07:25:58;24.33;;;8.77;;
68803;SDS011;55787;52.678;13.314;2023-01-19T07:28:28;31.02;;;10.05;;
68803;SDS011;55787;52.678;13.314;2023-01-19T07:30:56;28.95;;;10.45;;
68803;SDS011;55787;52.678;13.314;2023-01-19T07:33:23;31.40;;;10.30;;
68803;SDS011;55787;52.678;13.314;2023-01-19T07:35:53;37.60;;;10.37;;
68803;SDS011;55787;52.678;13.314;2023-01-19T07:38:20;27.85;;;9.43;;
68803;SDS011;55787;52.678;13.314;2023-01-19T07:40:47;28.63;;;10.60;;
68803;SDS011;55787;52.678;13.314;2023-01-19T07:43:14;30.92;;;9.68;;
68803;SDS011;55787;52.678;13.314;2023-01-19T07:45:41;27.75;;;9.27;;
68803;SDS011;55787;52.678;13.314;2023-01-19T07:48:08;28.63;;;10.63;;
68803;SDS011;55787;52.678;13.314;2023-01-19T07:50:38;34.60;;;11.25;;
68803;SDS011;55787;52.678;13.314;2023-01-19T07:53:05;28.08;;;10.93;;
68803;SDS011;55787;52.678;13.314;2023-01-19T07:55:33;32.92;;;11.07;;
68803;SDS011;55787;52.678;13.314;2023-01-19T07:58:00;28.83;;;10.15;;
68803;SDS011;55787;52.678;13.314;2023-01-19T08:00:26;33.07;;;11.40;;
68803;SDS011;55787;52.678;13.314;2023-01-19T08:02:57;29.65;;;11.10;;
68803;SDS011;55787;52.678;13.314;2023-01-19T08:05:26;35.83;;;11.80;;
68803;SDS011;55787;52.678;13.314;2023-01-19T08:07:58;34.45;;;11.27;;
68803;SDS011;55787;52.678;13.314;2023-01-19T08:10:26;31.75;;;11.48;;
68803;SDS011;55787;52.678;13.314;2023-01-19T08:12:54;29.03;;;10.70;;
68803;SDS011;55787;52.678;13.314;2023-01-19T08:15:22;29.95;;;10.77;;
68803;SDS011;55787;52.678;13.314;2023-01-19T08:17:56;32.97;;;11.48;;
68803;SDS011;55787;52.678;13.314;2023-01-19T08:20:26;29.85;;;10.63;;
68803;SDS011;55787;52.678;13.314;2023-01-19T08:22:54;37.92;;;11.05;;
68803;SDS011;55787;52.678;13.314;2023-01-19T08:25:26;32.70;;;10.93;;
68803;SDS011;55787;52.678;13.314;2023-01-19T08:27:58;28.33;;;10.73;;
68803;SDS011;55787;52.678;13.314;2023-01-19T08:30:25;27.67;;;10.27;;
68803;SDS011;55787;52.678;13.314;2023-01-19T08:32:55;29.52;;;10.90;;
68803;SDS011;55787;52.678;13.314;2023-01-19T08:35:30;28.48;;;10.27;;
68803;SDS011;55787;52.678;13.314;2023-01-19T08:37:57;30.80;;;10.43;;
68803;SDS011;55787;52.678;13.314;2023-01-19T08:40:30;28.38;;;10.13;;
68803;SDS011;55787;52.678;13.314;2023-01-19T08:43:04;27.92;;;10.57;;
68803;SDS011;55787;52.678;13.314;2023-01-19T08:45:33;31.45;;;9.95;;
68803;SDS011;55787;52.678;13.314;2023-01-19T08:48:01;18.70;;;5.75;;
68803;SDS011;55787;52.678;13.314;2023-01-19T08:50:29;28.37;;;11.00;;
68803;SDS011;55787;52.678;13.314;2023-01-19T08:52:57;28.25;;;9.07;;
68803;SDS011;55787;52.678;13.314;2023-01-19T08:55:26;20.55;;;7.63;;
68803;SDS011;55787;52.678;13.314;2023-01-19T08:57:54;25.15;;;8.52;;
68803;SDS011;55787;52.678;13.314;2023-01-19T09:00:25;24.42;;;8.77;;
68803;SDS011;55787;52.678;13.314;2023-01-19T09:02:53;24.30;;;8.90;;
68803;SDS011;55787;52.678;13.314;2023-01-19T09:05:19;28.27;;;11.13;;
68803;SDS011;55787;52.678;13.314;2023-01-19T09:07:46;28.17;;;9.52;;
68803;SDS011;55787;52.678;13.314;2023-01-19T09:10:13;24.38;;;9.20;;
68803;SDS011;55787;52.678;13.314;2023-01-19T09:12:42;27.70;;;9.35;;
68803;SDS011;55787;52.678;13.314;2023-01-19T09:15:10;34.70;;;12.33;;
68803;SDS011;55787;52.678;13.314;2023-01-19T09:17:39;24.33;;;8.15;;
68803;SDS011;55787;52.678;13.314;2023-01-19T09:20:07;25.38;;;8.10;;
68803;SDS011;55787;52.678;13.314;2023-01-19T09:22:34;21.67;;;8.52;;
68803;SDS011;55787;52.678;13.314;2023-01-19T09:25:01;23.38;;;9.05;;
68803;SDS011;55787;52.678;13.314;2023-01-19T09:27:28;24.73;;;7.77;;
68803;SDS011;55787;52.678;13.314;2023-01-19T09:29:54;23.65;;;8.32;;
68803;SDS011;55787;52.678;13.314;2023-01-19T09:32:21;21.70;;;7.82;;
68803;SDS011;55787;52.678;13.314;2023-01-19T09:34:48;23.50;;;8.00;;
68803;SDS011;55787;52.678;13.314;2023-01-19T09:37:15;20.17;;;6.97;;
68803;SDS011;55787;52.678;13.314;2023-01-19T09:39:42;17.47;;;6.73;;
68803;SDS011;55787;52.678;13.314;2023-01-19T09:42:17;15.80;;;6.85;;
68803;SDS011;55787;52.678;13.314;2023-01-19T09:44:45;17.20;;;6.72;;
68803;SDS011;55787;52.678;13.314;2023-01-19T09:47:15;20.48;;;7.45;;
68803;SDS011;55787;52.678;13.314;2023-01-19T09:49:46;13.55;;;4.55;;
68803;SDS011;55787;52.678;13.314;2023-01-19T09:52:17;19.13;;;7.00;;
68803;SDS011;55787;52.678;13.314;2023-01-19T09:54:47;16.23;;;6.72;;
68803;SDS011;55787;52.678;13.314;2023-01-19T09:57:19;23.30;;;7.68;;
68803;SDS011;55787;52.678;13.314;2023-01-19T09:59:46;18.92;;;7.20;;
68803;SDS011;55787;52.678;13.314;2023-01-19T10:10:44;19.90;;;7.75;;
68803;SDS011;55787;52.678;13.314;2023-01-19T10:18:53;17.23;;;6.23;;
68803;SDS011;55787;52.678;13.314;2023-01-19T10:21:26;15.15;;;5.55;;
68803;SDS011;55787;52.678;13.314;2023-01-19T10:24:00;19.85;;;6.82;;
68803;SDS011;55787;52.678;13.314;2023-01-19T10:26:38;14.57;;;5.75;;
68803;SDS011;55787;52.678;13.314;2023-01-19T10:32:12;15.40;;;6.00;;
68803;SDS011;55787;52.678;13.314;2023-01-19T10:34:45;14.45;;;5.22;;
68803;SDS011;55787;52.678;13.314;2023-01-19T10:42:36;15.52;;;5.50;;
68803;SDS011;55787;52.678;13.314;2023-01-19T10:45:14;14.30;;;5.47;;
68803;SDS011;55787;52.678;13.314;2023-01-19T10:47:43;14.73;;;5.40;;
68803;SDS011;55787;52.678;13.314;2023-01-19T10:52:52;15.10;;;5.15;;
68803;SDS011;55787;52.678;13.314;2023-01-19T10:55:42;13.70;;;3.83;;
68803;SDS011;55787;52.678;13.314;2023-01-19T11:03:44;8.38;;;2.45;;
68803;SDS011;55787;52.678;13.314;2023-01-19T11:08:41;14.93;;;3.83;;
68803;SDS011;55787;52.678;13.314;2023-01-19T11:11:09;17.93;;;5.33;;
68803;SDS011;55787;52.678;13.314;2023-01-19T11:13:38;13.98;;;4.68;;
68803;SDS011;55787;52.678;13.314;2023-01-19T11:18:41;15.10;;;4.80;;
68803;SDS011;55787;52.678;13.314;2023-01-19T11:21:10;14.25;;;5.28;;
68803;SDS011;55787;52.678;13.314;2023-01-19T11:23:40;13.83;;;4.80;;
68803;SDS011;55787;52.678;13.314;2023-01-19T11:26:23;14.30;;;4.60;;
68803;SDS011;55787;52.678;13.314;2023-01-19T11:28:54;14.73;;;5.10;;
68803;SDS011;55787;52.678;13.314;2023-01-19T11:34:03;14.68;;;5.20;;
68803;SDS011;55787;52.678;13.314;2023-01-19T11:36:34;14.03;;;5.20;;
68803;SDS011;55787;52.678;13.314;2023-01-19T11:41:37;15.88;;;4.30;;
68803;SDS011;55787;52.678;13.314;2023-01-19T11:44:18;13.23;;;4.93;;
68803;SDS011;55787;52.678;13.314;2023-01-19T11:46:50;12.88;;;3.75;;
68803;SDS011;55787;52.678;13.314;2023-01-19T11:49:32;14.63;;;4.97;;
68803;SDS011;55787;52.678;13.314;2023-01-19T11:54:48;14.45;;;5.38;;
68803;SDS011;55787;52.678;13.314;2023-01-19T11:57:21;13.88;;;4.47;;
68803;SDS011;55787;52.678;13.314;2023-01-19T11:59:48;15.32;;;4.68;;
68803;SDS011;55787;52.678;13.314;2023-01-19T12:02:27;16.20;;;5.40;;
68803;SDS011;55787;52.678;13.314;2023-01-19T12:04:58;15.10;;;5.22;;
68803;SDS011;55787;52.678;13.314;2023-01-19T12:07:31;15.75;;;5.07;;
68803;SDS011;55787;52.678;13.314;2023-01-19T12:10:34;14.65;;;5.55;;
68803;SDS011;55787;52.678;13.314;2023-01-19T12:12:58;10.90;;;3.10;;
68803;SDS011;55787;52.678;13.314;2023-01-19T12:17:56;13.52;;;4.45;;
68803;SDS011;55787;52.678;13.314;2023-01-19T12:20:36;12.50;;;3.90;;
68803;SDS011;55787;52.678;13.314;2023-01-19T12:23:23;12.65;;;4.65;;
68803;SDS011;55787;52.678;13.314;2023-01-19T12:28:59;14.37;;;5.10;;
68803;SDS011;55787;52.678;13.314;2023-01-19T12:31:31;15.00;;;4.80;;
68803;SDS011;55787;52.678;13.314;2023-01-19T12:36:50;13.38;;;4.90;;
68803;SDS011;55787;52.678;13.314;2023-01-19T12:39:20;14.43;;;4.95;;
68803;SDS011;55787;52.678;13.314;2023-01-19T12:42:02;13.03;;;5.07;;
68803;SDS011;55787;52.678;13.314;2023-01-19T12:44:44;15.32;;;4.95;;
68803;SDS011;55787;52.678;13.314;2023-01-19T12:49:39;16.35;;;5.90;;
68803;SDS011;55787;52.678;13.314;2023-01-19T12:52:23;12.70;;;5.03;;
68803;SDS011;55787;52.678;13.314;2023-01-19T12:58:02;15.82;;;5.38;;
68803;SDS011;55787;52.678;13.314;2023-01-19T13:00:49;13.13;;;4.32;;
68803;SDS011;55787;52.678;13.314;2023-01-19T13:09:28;14.90;;;5.27;;
68803;SDS011;55787;52.678;13.314;2023-01-19T13:14:48;11.60;;;4.82;;
68803;SDS011;55787;52.678;13.314;2023-01-19T13:17:23;13.20;;;4.20;;
68803;SDS011;55787;52.678;13.314;2023-01-19T13:22:49;14.23;;;5.10;;
68803;SDS011;55787;52.678;13.314;2023-01-19T13:25:27;14.82;;;5.78;;
68803;SDS011;55787;52.678;13.314;2023-01-19T13:27:56;11.35;;;3.75;;
68803;SDS011;55787;52.678;13.314;2023-01-19T13:30:25;15.02;;;4.90;;
68803;SDS011;55787;52.678;13.314;2023-01-19T13:33:02;15.05;;;5.05;;
68803;SDS011;55787;52.678;13.314;2023-01-19T13:35:34;15.23;;;5.32;;
68803;SDS011;55787;52.678;13.314;2023-01-19T13:38:01;12.27;;;4.68;;
68803;SDS011;55787;52.678;13.314;2023-01-19T13:40:32;14.30;;;5.30;;
68803;SDS011;55787;52.678;13.314;2023-01-19T13:43:06;17.38;;;5.72;;
68803;SDS011;55787;52.678;13.314;2023-01-19T13:45:45;14.82;;;5.90;;
68803;SDS011;55787;52.678;13.314;2023-01-19T13:48:19;13.50;;;5.50;;
68803;SDS011;55787;52.678;13.314;2023-01-19T13:51:04;15.45;;;5.68;;
68803;SDS011;55787;52.678;13.314;2023-01-19T13:53:32;14.57;;;5.28;;
68803;SDS011;55787;52.678;13.314;2023-01-19T13:56:14;14.15;;;5.22;;
68803;SDS011;55787;52.678;13.314;2023-01-19T13:58:42;12.57;;;4.10;;
68803;SDS011;55787;52.678;13.314;2023-01-19T14:01:21;12.90;;;4.97;;
68803;SDS011;55787;52.678;13.314;2023-01-19T14:03:49;14.07;;;4.57;;
68803;SDS011;55787;52.678;13.314;2023-01-19T14:06:43;14.05;;;4.65;;
68803;SDS011;55787;52.678;13.314;2023-01-19T14:09:12;11.75;;;4.03;;
68803;SDS011;55787;52.678;13.314;2023-01-19T14:11:42;13.75;;;4.80;;
68803;SDS011;55787;52.678;13.314;2023-01-19T14:14:21;9.57;;;2.63;;
68803;SDS011;55787;52.678;13.314;2023-01-19T14:16:49;14.07;;;5.47;;
68803;SDS011;55787;52.678;13.314;2023-01-19T14:19:16;14.75;;;5.13;;
68803;SDS011;55787;52.678;13.314;2023-01-19T14:21:42;14.85;;;5.60;;
68803;SDS011;55787;52.678;13.314;2023-01-19T14:24:19;14.18;;;6.25;;
68803;SDS011;55787;52.678;13.314;2023-01-19T14:26:49;13.40;;;4.33;;
68803;SDS011;55787;52.678;13.314;2023-01-19T14:29:25;12.50;;;4.13;;
68803;SDS011;55787;52.678;13.314;2023-01-19T14:34:34;14.35;;;5.50;;
68803;SDS011;55787;52.678;13.314;2023-01-19T14:40:16;14.67;;;4.53;;
68803;SDS011;55787;52.678;13.314;2023-01-19T14:42:51;12.90;;;4.72;;
68803;SDS011;55787;52.678;13.314;2023-01-19T14:45:31;13.20;;;4.72;;
68803;SDS011;55787;52.678;13.314;2023-01-19T14:50:33;12.20;;;4.75;;
68803;SDS011;55787;52.678;13.314;2023-01-19T14:53:15;16.67;;;5.50;;
68803;SDS011;55787;52.678;13.314;2023-01-19T14:58:15;16.48;;;5.45;;
68803;SDS011;55787;52.678;13.314;2023-01-19T15:00:44;18.20;;;5.32;;
68803;SDS011;55787;52.678;13.314;2023-01-19T15:03:12;14.07;;;5.15;;
68803;SDS011;55787;52.678;13.314;2023-01-19T15:05:44;14.23;;;5.40;;
68803;SDS011;55787;52.678;13.314;2023-01-19T15:08:13;13.88;;;4.55;;
68803;SDS011;55787;52.678;13.314;2023-01-19T15:10:52;14.98;;;5.38;;
68803;SDS011;55787;52.678;13.314;2023-01-19T15:13:20;17.05;;;5.50;;
68803;SDS011;55787;52.678;13.314;2023-01-19T15:15:48;15.50;;;5.68;;
68803;SDS011;55787;52.678;13.314;2023-01-19T15:18:17;16.07;;;5.97;;
68803;SDS011;55787;52.678;13.314;2023-01-19T15:20:47;17.45;;;6.18;;
68803;SDS011;55787;52.678;13.314;2023-01-19T15:23:13;17.30;;;5.70;;
68803;SDS011;55787;52.678;13.314;2023-01-19T15:25:40;14.88;;;5.90;;
68803;SDS011;55787;52.678;13.314;2023-01-19T15:28:10;16.27;;;6.22;;
68803;SDS011;55787;52.678;13.314;2023-01-19T15:30:42;17.93;;;6.63;;
68803;SDS011;55787;52.678;13.314;2023-01-19T15:33:30;18.70;;;7.35;;
68803;SDS011;55787;52.678;13.314;2023-01-19T15:35:56;19.25;;;7.28;;
68803;SDS011;55787;52.678;13.314;2023-01-19T15:38:23;24.25;;;7.47;;
68803;SDS011;55787;52.678;13.314;2023-01-19T15:40:50;21.10;;;7.80;;
68803;SDS011;55787;52.678;13.314;2023-01-19T15:43:17;21.53;;;8.43;;
68803;SDS011;55787;52.678;13.314;2023-01-19T15:45:47;19.13;;;8.10;;
68803;SDS011;55787;52.678;13.314;2023-01-19T15:48:16;20.67;;;8.10;;
68803;SDS011;55787;52.678;13.314;2023-01-19T15:50:45;21.23;;;8.13;;
68803;SDS011;55787;52.678;13.314;2023-01-19T15:53:17;19.45;;;7.60;;
68803;SDS011;55787;52.678;13.314;2023-01-19T15:55:51;20.40;;;7.75;;
68803;SDS011;55787;52.678;13.314;2023-01-19T15:58:20;20.88;;;6.93;;
68803;SDS011;55787;52.678;13.314;2023-01-19T16:00:52;21.05;;;7.30;;
68803;SDS011;55787;52.678;13.314;2023-01-19T16:03:21;18.10;;;7.10;;
68803;SDS011;55787;52.678;13.314;2023-01-19T16:05:48;18.65;;;7.38;;
68803;SDS011;55787;52.678;13.314;2023-01-19T16:08:15;21.00;;;7.80;;
68803;SDS011;55787;52.678;13.314;2023-01-19T16:10:42;23.30;;;7.90;;
68803;SDS011;55787;52.678;13.314;2023-01-19T16:13:09;22.13;;;9.00;;
68803;SDS011;55787;52.678;13.314;2023-01-19T16:15:37;21.52;;;8.07;;